Terminal Aerodrome Forecast
Issued by NWS

Home | Current Version | Previous Version | Text Only | Print | Product List | Glossary On
Versions: 1 2 3 4 5 6 7 8 9 10 11 12
411
FTUS43 KSGF 081720
TAFJLN
TAF
KJLN 081720Z 0818/0918 32011KT P6SM SKC
     FM090000 32005KT P6SM SKC=

USA.gov is the U.S. government's official web portal to all federal, state and local government web resources and services.